sensor_id;sensor_type;location;lat;lon;timestamp;temperature;humidity
77052;SHT30;65980;44.898;8.602;2023-12-14T00:02:33;8.88;86.29
77052;SHT30;65980;44.898;8.602;2023-12-14T00:05:36;8.72;87.00
77052;SHT30;65980;44.898;8.602;2023-12-14T00:08:41;8.63;87.22
77052;SHT30;65980;44.898;8.602;2023-12-14T00:11:45;8.79;87.03
77052;SHT30;65980;44.898;8.602;2023-12-14T00:14:49;8.80;86.95
77052;SHT30;65980;44.898;8.602;2023-12-14T00:17:54;8.83;86.59
77052;SHT30;65980;44.898;8.602;2023-12-14T00:20:58;8.81;86.64
77052;SHT30;65980;44.898;8.602;2023-12-14T00:24:03;8.72;86.44
77052;SHT30;65980;44.898;8.602;2023-12-14T00:27:06;8.77;86.76
77052;SHT30;65980;44.898;8.602;2023-12-14T00:30:11;8.66;86.69
77052;SHT30;65980;44.898;8.602;2023-12-14T00:33:17;8.56;87.10
77052;SHT30;65980;44.898;8.602;2023-12-14T00:36:22;8.66;86.62
77052;SHT30;65980;44.898;8.602;2023-12-14T00:39:26;8.62;86.96
77052;SHT30;65980;44.898;8.602;2023-12-14T00:42:29;8.76;86.54
77052;SHT30;65980;44.898;8.602;2023-12-14T00:45:35;8.67;86.56
77052;SHT30;65980;44.898;8.602;2023-12-14T00:48:40;8.76;86.31
77052;SHT30;65980;44.898;8.602;2023-12-14T00:51:44;8.52;87.15
77052;SHT30;65980;44.898;8.602;2023-12-14T00:54:49;8.67;86.64
77052;SHT30;65980;44.898;8.602;2023-12-14T00:57:54;8.79;86.25
77052;SHT30;65980;44.898;8.602;2023-12-14T01:00:57;8.80;85.91
77052;SHT30;65980;44.898;8.602;2023-12-14T01:04:02;8.90;86.23
77052;SHT30;65980;44.898;8.602;2023-12-14T01:07:07;9.01;85.94
77052;SHT30;65980;44.898;8.602;2023-12-14T01:10:12;9.05;85.77
77052;SHT30;65980;44.898;8.602;2023-12-14T01:13:15;9.03;85.44
77052;SHT30;65980;44.898;8.602;2023-12-14T01:16:19;8.56;86.65
77052;SHT30;65980;44.898;8.602;2023-12-14T01:19:23;8.39;87.25
77052;SHT30;65980;44.898;8.602;2023-12-14T01:22:29;8.15;87.91
77052;SHT30;65980;44.898;8.602;2023-12-14T01:25:36;8.17;88.26
77052;SHT30;65980;44.898;8.602;2023-12-14T01:28:40;8.17;87.90
77052;SHT30;65980;44.898;8.602;2023-12-14T01:31:44;8.18;88.00
77052;SHT30;65980;44.898;8.602;2023-12-14T01:34:49;8.17;88.22
77052;SHT30;65980;44.898;8.602;2023-12-14T01:37:52;8.17;88.25
77052;SHT30;65980;44.898;8.602;2023-12-14T01:40:58;8.30;87.94
77052;SHT30;65980;44.898;8.602;2023-12-14T01:44:03;8.46;87.69
77052;SHT30;65980;44.898;8.602;2023-12-14T01:47:08;8.60;86.61
77052;SHT30;65980;44.898;8.602;2023-12-14T01:50:12;8.65;86.74
77052;SHT30;65980;44.898;8.602;2023-12-14T01:53:17;8.79;86.46
77052;SHT30;65980;44.898;8.602;2023-12-14T01:56:21;8.81;86.12
77052;SHT30;65980;44.898;8.602;2023-12-14T01:59:26;8.86;86.03
77052;SHT30;65980;44.898;8.602;2023-12-14T02:02:32;8.86;85.69
77052;SHT30;65980;44.898;8.602;2023-12-14T02:05:39;8.86;85.69
77052;SHT30;65980;44.898;8.602;2023-12-14T02:08:42;8.76;85.94
77052;SHT30;65980;44.898;8.602;2023-12-14T02:11:47;8.69;86.12
77052;SHT30;65980;44.898;8.602;2023-12-14T02:15:15;8.70;86.12
77052;SHT30;65980;44.898;8.602;2023-12-14T02:18:19;8.73;85.94
77052;SHT30;65980;44.898;8.602;2023-12-14T02:21:24;8.69;85.85
77052;SHT30;65980;44.898;8.602;2023-12-14T02:24:29;8.60;86.36
77052;SHT30;65980;44.898;8.602;2023-12-14T02:27:33;8.59;86.03
77052;SHT30;65980;44.898;8.602;2023-12-14T02:30:38;8.70;85.73
77052;SHT30;65980;44.898;8.602;2023-12-14T02:33:46;8.72;85.81
77052;SHT30;65980;44.898;8.602;2023-12-14T02:36:49;8.66;85.75
77052;SHT30;65980;44.898;8.602;2023-12-14T02:39:53;8.60;85.67
77052;SHT30;65980;44.898;8.602;2023-12-14T02:42:57;8.65;85.52
77052;SHT30;65980;44.898;8.602;2023-12-14T02:46:02;8.58;85.88
77052;SHT30;65980;44.898;8.602;2023-12-14T02:49:06;8.66;85.77
77052;SHT30;65980;44.898;8.602;2023-12-14T02:52:11;8.75;85.62
77052;SHT30;65980;44.898;8.602;2023-12-14T02:55:15;8.53;85.87
77052;SHT30;65980;44.898;8.602;2023-12-14T02:58:20;8.56;86.09
77052;SHT30;65980;44.898;8.602;2023-12-14T03:01:25;8.60;85.86
77052;SHT30;65980;44.898;8.602;2023-12-14T03:04:31;8.55;85.62
77052;SHT30;65980;44.898;8.602;2023-12-14T03:07:35;8.59;85.62
77052;SHT30;65980;44.898;8.602;2023-12-14T03:10:39;8.58;85.67
77052;SHT30;65980;44.898;8.602;2023-12-14T03:13:45;8.58;85.59
77052;SHT30;65980;44.898;8.602;2023-12-14T03:16:52;8.59;85.59
77052;SHT30;65980;44.898;8.602;2023-12-14T03:19:56;8.52;85.82
77052;SHT30;65980;44.898;8.602;2023-12-14T03:23:00;8.58;85.68
77052;SHT30;65980;44.898;8.602;2023-12-14T03:26:04;8.41;85.83
77052;SHT30;65980;44.898;8.602;2023-12-14T03:29:08;8.35;86.21
77052;SHT30;65980;44.898;8.602;2023-12-14T03:32:12;8.44;86.25
77052;SHT30;65980;44.898;8.602;2023-12-14T03:35:17;8.45;85.91
77052;SHT30;65980;44.898;8.602;2023-12-14T03:38:22;8.03;87.51
77052;SHT30;65980;44.898;8.602;2023-12-14T03:41:26;7.89;88.54
77052;SHT30;65980;44.898;8.602;2023-12-14T03:44:31;7.98;87.95
77052;SHT30;65980;44.898;8.602;2023-12-14T03:47:36;8.17;87.32
77052;SHT30;65980;44.898;8.602;2023-12-14T03:50:40;8.28;86.98
77052;SHT30;65980;44.898;8.602;2023-12-14T03:53:44;8.35;86.58
77052;SHT30;65980;44.898;8.602;2023-12-14T03:56:52;8.49;86.37
77052;SHT30;65980;44.898;8.602;2023-12-14T03:59:59;8.58;85.99
77052;SHT30;65980;44.898;8.602;2023-12-14T04:03:04;8.65;85.68
77052;SHT30;65980;44.898;8.602;2023-12-14T04:06:08;8.69;85.35
77052;SHT30;65980;44.898;8.602;2023-12-14T04:09:13;8.72;85.22
77052;SHT30;65980;44.898;8.602;2023-12-14T04:12:17;8.67;85.06
77052;SHT30;65980;44.898;8.602;2023-12-14T04:15:21;8.46;85.84
77052;SHT30;65980;44.898;8.602;2023-12-14T04:18:25;8.49;85.58
77052;SHT30;65980;44.898;8.602;2023-12-14T04:21:30;8.58;85.46
77052;SHT30;65980;44.898;8.602;2023-12-14T04:24:34;8.38;85.71
77052;SHT30;65980;44.898;8.602;2023-12-14T04:27:40;8.41;85.37
77052;SHT30;65980;44.898;8.602;2023-12-14T04:30:44;8.34;85.51
77052;SHT30;65980;44.898;8.602;2023-12-14T04:33:48;8.15;86.02
77052;SHT30;65980;44.898;8.602;2023-12-14T04:36:53;8.10;86.29
77052;SHT30;65980;44.898;8.602;2023-12-14T04:40:02;8.20;86.17
77052;SHT30;65980;44.898;8.602;2023-12-14T04:43:07;8.21;86.19
77052;SHT30;65980;44.898;8.602;2023-12-14T04:46:12;8.21;85.86
77052;SHT30;65980;44.898;8.602;2023-12-14T04:49:18;8.17;85.65
77052;SHT30;65980;44.898;8.602;2023-12-14T04:52:23;8.01;86.25
77052;SHT30;65980;44.898;8.602;2023-12-14T04:55:27;8.01;86.14
77052;SHT30;65980;44.898;8.602;2023-12-14T04:58:32;7.89;86.43
77052;SHT30;65980;44.898;8.602;2023-12-14T05:01:36;7.77;87.03
77052;SHT30;65980;44.898;8.602;2023-12-14T05:04:40;7.86;86.71
77052;SHT30;65980;44.898;8.602;2023-12-14T05:07:44;7.69;86.94
77052;SHT30;65980;44.898;8.602;2023-12-14T05:10:48;7.56;87.52
77052;SHT30;65980;44.898;8.602;2023-12-14T05:13:53;7.62;87.15
77052;SHT30;65980;44.898;8.602;2023-12-14T05:16:57;7.62;87.55
77052;SHT30;65980;44.898;8.602;2023-12-14T05:20:07;7.41;87.78
77052;SHT30;65980;44.898;8.602;2023-12-14T05:23:12;7.47;87.64
77052;SHT30;65980;44.898;8.602;2023-12-14T05:26:18;7.49;87.30
77052;SHT30;65980;44.898;8.602;2023-12-14T05:29:23;7.62;86.86
77052;SHT30;65980;44.898;8.602;2023-12-14T05:32:28;7.69;86.66
77052;SHT30;65980;44.898;8.602;2023-12-14T05:35:32;7.52;86.53
77052;SHT30;65980;44.898;8.602;2023-12-14T05:38:41;7.61;86.74
77052;SHT30;65980;44.898;8.602;2023-12-14T05:41:45;7.61;86.20
77052;SHT30;65980;44.898;8.602;2023-12-14T05:44:49;7.51;86.34
77052;SHT30;65980;44.898;8.602;2023-12-14T05:47:54;7.55;86.70
77052;SHT30;65980;44.898;8.602;2023-12-14T05:51:00;7.38;86.74
77052;SHT30;65980;44.898;8.602;2023-12-14T05:54:04;7.44;86.70
77052;SHT30;65980;44.898;8.602;2023-12-14T05:57:09;7.39;86.12
77052;SHT30;65980;44.898;8.602;2023-12-14T06:00:18;7.41;86.23
77052;SHT30;65980;44.898;8.602;2023-12-14T06:03:23;7.44;86.19
77052;SHT30;65980;44.898;8.602;2023-12-14T06:06:27;7.44;86.28
77052;SHT30;65980;44.898;8.602;2023-12-14T06:09:32;7.49;86.22
77052;SHT30;65980;44.898;8.602;2023-12-14T06:12:40;7.56;86.11
77052;SHT30;65980;44.898;8.602;2023-12-14T06:15:45;7.56;86.06
77052;SHT30;65980;44.898;8.602;2023-12-14T06:18:49;7.61;86.58
77052;SHT30;65980;44.898;8.602;2023-12-14T06:21:54;7.39;86.07
77052;SHT30;65980;44.898;8.602;2023-12-14T06:24:58;7.38;86.23
77052;SHT30;65980;44.898;8.602;2023-12-14T06:28:02;7.35;86.17
77052;SHT30;65980;44.898;8.602;2023-12-14T06:31:12;7.25;86.08
77052;SHT30;65980;44.898;8.602;2023-12-14T06:34:19;7.13;87.17
77052;SHT30;65980;44.898;8.602;2023-12-14T06:37:25;6.69;88.58
77052;SHT30;65980;44.898;8.602;2023-12-14T06:40:29;7.00;88.71
77052;SHT30;65980;44.898;8.602;2023-12-14T06:43:34;7.01;89.06
77052;SHT30;65980;44.898;8.602;2023-12-14T06:46:46;7.36;87.93
77052;SHT30;65980;44.898;8.602;2023-12-14T06:49:50;7.41;88.04
77052;SHT30;65980;44.898;8.602;2023-12-14T06:52:55;7.61;88.06
77052;SHT30;65980;44.898;8.602;2023-12-14T06:55:59;7.01;91.02
77052;SHT30;65980;44.898;8.602;2023-12-14T06:59:04;7.10;90.81
77052;SHT30;65980;44.898;8.602;2023-12-14T07:02:09;7.27;90.38
77052;SHT30;65980;44.898;8.602;2023-12-14T07:05:17;7.49;89.44
77052;SHT30;65980;44.898;8.602;2023-12-14T07:08:24;7.66;88.81
77052;SHT30;65980;44.898;8.602;2023-12-14T07:11:28;7.75;88.52
77052;SHT30;65980;44.898;8.602;2023-12-14T07:14:33;7.89;87.88
77052;SHT30;65980;44.898;8.602;2023-12-14T07:17:38;8.07;87.27
77052;SHT30;65980;44.898;8.602;2023-12-14T07:20:43;8.15;87.08
77052;SHT30;65980;44.898;8.602;2023-12-14T07:24:07;7.97;87.08
77052;SHT30;65980;44.898;8.602;2023-12-14T07:27:12;7.55;89.07
77052;SHT30;65980;44.898;8.602;2023-12-14T07:30:16;7.62;89.32
77052;SHT30;65980;44.898;8.602;2023-12-14T07:33:20;7.77;88.63
77052;SHT30;65980;44.898;8.602;2023-12-14T07:36:24;7.90;87.87
77052;SHT30;65980;44.898;8.602;2023-12-14T07:39:29;7.98;87.76
77052;SHT30;65980;44.898;8.602;2023-12-14T07:42:34;8.11;87.13
77052;SHT30;65980;44.898;8.602;2023-12-14T07:45:39;8.28;86.95
77052;SHT30;65980;44.898;8.602;2023-12-14T07:48:43;8.45;86.30
77052;SHT30;65980;44.898;8.602;2023-12-14T07:51:48;8.60;85.85
77052;SHT30;65980;44.898;8.602;2023-12-14T07:54:53;8.73;85.21
77052;SHT30;65980;44.898;8.602;2023-12-14T07:57:57;8.84;84.77
77052;SHT30;65980;44.898;8.602;2023-12-14T08:01:02;8.88;84.92
77052;SHT30;65980;44.898;8.602;2023-12-14T08:04:07;8.86;85.03
77052;SHT30;65980;44.898;8.602;2023-12-14T08:07:13;8.99;85.14
77052;SHT30;65980;44.898;8.602;2023-12-14T08:10:18;9.00;84.84
77052;SHT30;65980;44.898;8.602;2023-12-14T08:13:30;9.03;84.68
77052;SHT30;65980;44.898;8.602;2023-12-14T08:16:34;9.08;84.81
77052;SHT30;65980;44.898;8.602;2023-12-14T08:19:38;9.03;84.77
77052;SHT30;65980;44.898;8.602;2023-12-14T08:22:45;8.67;85.03
77052;SHT30;65980;44.898;8.602;2023-12-14T08:25:48;8.41;85.06
77052;SHT30;65980;44.898;8.602;2023-12-14T08:28:53;8.50;84.87
77052;SHT30;65980;44.898;8.602;2023-12-14T08:31:57;8.67;84.20
77052;SHT30;65980;44.898;8.602;2023-12-14T08:35:05;8.63;84.46
77052;SHT30;65980;44.898;8.602;2023-12-14T08:38:10;8.56;84.61
77052;SHT30;65980;44.898;8.602;2023-12-14T08:41:15;8.45;84.79
77052;SHT30;65980;44.898;8.602;2023-12-14T08:44:20;8.38;85.39
77052;SHT30;65980;44.898;8.602;2023-12-14T08:47:25;8.55;84.75
77052;SHT30;65980;44.898;8.602;2023-12-14T08:50:30;8.96;83.98
77052;SHT30;65980;44.898;8.602;2023-12-14T08:53:34;9.22;82.92
77052;SHT30;65980;44.898;8.602;2023-12-14T08:56:42;9.50;81.75
77052;SHT30;65980;44.898;8.602;2023-12-14T08:59:47;9.83;80.12
77052;SHT30;65980;44.898;8.602;2023-12-14T09:02:51;9.58;80.42
77052;SHT30;65980;44.898;8.602;2023-12-14T09:05:56;9.83;80.60
77052;SHT30;65980;44.898;8.602;2023-12-14T09:09:03;10.25;79.19
77052;SHT30;65980;44.898;8.602;2023-12-14T09:12:09;10.48;78.13
77052;SHT30;65980;44.898;8.602;2023-12-14T09:15:14;10.81;77.61
77052;SHT30;65980;44.898;8.602;2023-12-14T09:18:21;10.77;76.60
77052;SHT30;65980;44.898;8.602;2023-12-14T09:21:43;10.77;76.01
77052;SHT30;65980;44.898;8.602;2023-12-14T09:25:06;10.93;75.57
77052;SHT30;65980;44.898;8.602;2023-12-14T09:29:54;10.79;76.22
77052;SHT30;65980;44.898;8.602;2023-12-14T09:33:39;11.01;74.48
77052;SHT30;65980;44.898;8.602;2023-12-14T09:36:44;11.58;72.65
77052;SHT30;65980;44.898;8.602;2023-12-14T09:39:49;11.01;74.31
77052;SHT30;65980;44.898;8.602;2023-12-14T09:42:55;10.53;76.20
77052;SHT30;65980;44.898;8.602;2023-12-14T09:46:02;11.28;73.70
77052;SHT30;65980;44.898;8.602;2023-12-14T09:49:08;11.49;71.75
77052;SHT30;65980;44.898;8.602;2023-12-14T09:52:13;11.11;73.08
77052;SHT30;65980;44.898;8.602;2023-12-14T09:55:18;10.50;75.29
77052;SHT30;65980;44.898;8.602;2023-12-14T09:58:23;10.86;73.13
77052;SHT30;65980;44.898;8.602;2023-12-14T10:01:27;11.24;72.92
77052;SHT30;65980;44.898;8.602;2023-12-14T10:04:32;11.38;72.48
77052;SHT30;65980;44.898;8.602;2023-12-14T10:07:43;11.98;70.77
77052;SHT30;65980;44.898;8.602;2023-12-14T10:10:50;12.00;70.44
77052;SHT30;65980;44.898;8.602;2023-12-14T10:13:58;12.32;68.78
77052;SHT30;65980;44.898;8.602;2023-12-14T10:17:14;12.77;67.73
77052;SHT30;65980;44.898;8.602;2023-12-14T10:20:22;12.27;69.17
77052;SHT30;65980;44.898;8.602;2023-12-14T10:23:28;12.28;70.01
77052;SHT30;65980;44.898;8.602;2023-12-14T10:26:32;11.93;70.52
77052;SHT30;65980;44.898;8.602;2023-12-14T10:29:38;11.90;70.36
77052;SHT30;65980;44.898;8.602;2023-12-14T10:32:43;12.07;69.21
77052;SHT30;65980;44.898;8.602;2023-12-14T10:35:58;12.10;70.57
77052;SHT30;65980;44.898;8.602;2023-12-14T10:39:06;13.67;67.17
77052;SHT30;65980;44.898;8.602;2023-12-14T10:42:13;14.44;62.26
77052;SHT30;65980;44.898;8.602;2023-12-14T10:45:18;15.10;60.75
77052;SHT30;65980;44.898;8.602;2023-12-14T10:59:24;15.67;56.55
77052;SHT30;65980;44.898;8.602;2023-12-14T11:02:30;14.48;60.35
77052;SHT30;65980;44.898;8.602;2023-12-14T11:05:56;13.27;63.68
77052;SHT30;65980;44.898;8.602;2023-12-14T11:09:08;13.14;64.73
77052;SHT30;65980;44.898;8.602;2023-12-14T11:12:19;13.44;63.80
77052;SHT30;65980;44.898;8.602;2023-12-14T11:15:25;14.14;61.57
77052;SHT30;65980;44.898;8.602;2023-12-14T11:18:36;14.29;61.05
77052;SHT30;65980;44.898;8.602;2023-12-14T11:21:41;14.72;59.48
77052;SHT30;65980;44.898;8.602;2023-12-14T11:24:52;14.73;59.61
77052;SHT30;65980;44.898;8.602;2023-12-14T11:28:03;15.35;57.91
77052;SHT30;65980;44.898;8.602;2023-12-14T11:31:12;15.12;58.88
77052;SHT30;65980;44.898;8.602;2023-12-14T11:34:17;16.14;56.19
77052;SHT30;65980;44.898;8.602;2023-12-14T11:37:21;16.82;53.78
77052;SHT30;65980;44.898;8.602;2023-12-14T11:40:26;17.55;52.39
77052;SHT30;65980;44.898;8.602;2023-12-14T11:43:38;17.23;53.17
77052;SHT30;65980;44.898;8.602;2023-12-14T11:46:43;16.34;53.96
77052;SHT30;65980;44.898;8.602;2023-12-14T11:49:48;17.38;52.64
77052;SHT30;65980;44.898;8.602;2023-12-14T11:52:53;15.39;57.56
77052;SHT30;65980;44.898;8.602;2023-12-14T11:55:59;16.62;56.19
77052;SHT30;65980;44.898;8.602;2023-12-14T11:59:05;18.93;50.12
77052;SHT30;65980;44.898;8.602;2023-12-14T12:02:09;20.61;45.75
77052;SHT30;65980;44.898;8.602;2023-12-14T12:05:13;18.44;48.09
77052;SHT30;65980;44.898;8.602;2023-12-14T12:08:24;17.00;53.35
77052;SHT30;65980;44.898;8.602;2023-12-14T12:11:28;19.07;49.93
77052;SHT30;65980;44.898;8.602;2023-12-14T12:14:33;19.76;47.05
77052;SHT30;65980;44.898;8.602;2023-12-14T12:17:38;20.53;45.51
77052;SHT30;65980;44.898;8.602;2023-12-14T12:20:45;21.54;42.64
77052;SHT30;65980;44.898;8.602;2023-12-14T12:23:49;21.06;43.75
77052;SHT30;65980;44.898;8.602;2023-12-14T12:26:53;21.32;44.32
77052;SHT30;65980;44.898;8.602;2023-12-14T12:29:56;21.90;42.18
77052;SHT30;65980;44.898;8.602;2023-12-14T12:33:01;22.21;41.85
77052;SHT30;65980;44.898;8.602;2023-12-14T12:36:09;22.45;40.49
77052;SHT30;65980;44.898;8.602;2023-12-14T12:39:13;22.96;39.93
77052;SHT30;65980;44.898;8.602;2023-12-14T12:42:18;22.83;40.64
77052;SHT30;65980;44.898;8.602;2023-12-14T12:45:23;22.93;40.24
77052;SHT30;65980;44.898;8.602;2023-12-14T12:48:29;22.72;39.85
77052;SHT30;65980;44.898;8.602;2023-12-14T12:51:34;22.89;39.41
77052;SHT30;65980;44.898;8.602;2023-12-14T12:54:39;20.45;43.98
77052;SHT30;65980;44.898;8.602;2023-12-14T12:57:44;19.79;46.06
77052;SHT30;65980;44.898;8.602;2023-12-14T13:00:49;18.85;47.76
77052;SHT30;65980;44.898;8.602;2023-12-14T13:03:55;18.21;50.04
77052;SHT30;65980;44.898;8.602;2023-12-14T13:07:01;18.14;50.27
77052;SHT30;65980;44.898;8.602;2023-12-14T13:10:09;19.89;46.76
77052;SHT30;65980;44.898;8.602;2023-12-14T13:13:13;20.38;46.57
77052;SHT30;65980;44.898;8.602;2023-12-14T13:16:18;19.73;46.58
77052;SHT30;65980;44.898;8.602;2023-12-14T13:19:21;18.69;48.29
77052;SHT30;65980;44.898;8.602;2023-12-14T13:22:27;18.66;48.72
77052;SHT30;65980;44.898;8.602;2023-12-14T13:25:32;16.83;52.91
77052;SHT30;65980;44.898;8.602;2023-12-14T13:28:35;15.41;58.34
77052;SHT30;65980;44.898;8.602;2023-12-14T13:31:40;14.66;60.17
77052;SHT30;65980;44.898;8.602;2023-12-14T13:34:44;13.74;63.15
77052;SHT30;65980;44.898;8.602;2023-12-14T13:37:50;13.66;64.60
77052;SHT30;65980;44.898;8.602;2023-12-14T13:40:54;13.76;64.37
77052;SHT30;65980;44.898;8.602;2023-12-14T13:44:00;13.69;64.82
77052;SHT30;65980;44.898;8.602;2023-12-14T13:47:05;13.63;64.45
77052;SHT30;65980;44.898;8.602;2023-12-14T13:50:09;13.54;65.20
77052;SHT30;65980;44.898;8.602;2023-12-14T13:53:13;13.15;67.29
77052;SHT30;65980;44.898;8.602;2023-12-14T13:56:19;12.76;67.59
77052;SHT30;65980;44.898;8.602;2023-12-14T13:59:49;12.34;69.32
77052;SHT30;65980;44.898;8.602;2023-12-14T14:02:54;12.66;68.78
77052;SHT30;65980;44.898;8.602;2023-12-14T14:05:59;12.90;67.40
77052;SHT30;65980;44.898;8.602;2023-12-14T14:09:07;12.89;67.72
77052;SHT30;65980;44.898;8.602;2023-12-14T14:12:13;12.92;67.13
77052;SHT30;65980;44.898;8.602;2023-12-14T14:15:18;12.82;67.48
77052;SHT30;65980;44.898;8.602;2023-12-14T14:18:24;12.89;67.69
77052;SHT30;65980;44.898;8.602;2023-12-14T14:25:58;12.59;68.94
77052;SHT30;65980;44.898;8.602;2023-12-14T14:29:29;12.60;69.26
77052;SHT30;65980;44.898;8.602;2023-12-14T14:33:23;12.57;69.43
77052;SHT30;65980;44.898;8.602;2023-12-14T14:41:59;12.76;68.88
77052;SHT30;65980;44.898;8.602;2023-12-14T14:51:03;12.65;68.59
77052;SHT30;65980;44.898;8.602;2023-12-14T14:54:28;12.56;68.73
77052;SHT30;65980;44.898;8.602;2023-12-14T14:57:34;12.39;69.31
77052;SHT30;65980;44.898;8.602;2023-12-14T15:00:38;12.38;69.54
77052;SHT30;65980;44.898;8.602;2023-12-14T15:03:43;12.41;69.49
77052;SHT30;65980;44.898;8.602;2023-12-14T15:06:49;12.27;70.10
77052;SHT30;65980;44.898;8.602;2023-12-14T15:09:52;12.22;70.73
77052;SHT30;65980;44.898;8.602;2023-12-14T15:12:58;12.08;71.24
77052;SHT30;65980;44.898;8.602;2023-12-14T15:16:03;11.86;72.14
77052;SHT30;65980;44.898;8.602;2023-12-14T15:19:08;11.76;72.51
77052;SHT30;65980;44.898;8.602;2023-12-14T15:22:13;11.66;73.63
77052;SHT30;65980;44.898;8.602;2023-12-14T15:25:18;11.76;73.01
77052;SHT30;65980;44.898;8.602;2023-12-14T15:28:21;11.72;72.44
77052;SHT30;65980;44.898;8.602;2023-12-14T15:31:26;11.62;73.09
77052;SHT30;65980;44.898;8.602;2023-12-14T15:34:30;11.63;72.77
77052;SHT30;65980;44.898;8.602;2023-12-14T15:37:35;11.66;72.92
77052;SHT30;65980;44.898;8.602;2023-12-14T15:40:41;11.59;72.82
77052;SHT30;65980;44.898;8.602;2023-12-14T15:43:52;11.56;72.71
77052;SHT30;65980;44.898;8.602;2023-12-14T15:46:56;11.52;73.69
77052;SHT30;65980;44.898;8.602;2023-12-14T15:50:31;11.18;74.49
77052;SHT30;65980;44.898;8.602;2023-12-14T15:58:32;10.99;75.14
77052;SHT30;65980;44.898;8.602;2023-12-14T16:01:41;10.72;75.80
77052;SHT30;65980;44.898;8.602;2023-12-14T16:04:50;10.12;78.47
77052;SHT30;65980;44.898;8.602;2023-12-14T16:07:58;10.28;77.76
77052;SHT30;65980;44.898;8.602;2023-12-14T16:11:34;10.41;76.84
77052;SHT30;65980;44.898;8.602;2023-12-14T16:14:42;10.25;76.81
77052;SHT30;65980;44.898;8.602;2023-12-14T16:19:07;10.18;77.87
77052;SHT30;65980;44.898;8.602;2023-12-14T16:22:24;10.31;76.88
77052;SHT30;65980;44.898;8.602;2023-12-14T16:25:35;10.42;75.73
77052;SHT30;65980;44.898;8.602;2023-12-14T16:28:44;10.32;76.08
77052;SHT30;65980;44.898;8.602;2023-12-14T16:31:48;10.20;76.76
77052;SHT30;65980;44.898;8.602;2023-12-14T16:34:53;9.67;78.95
77052;SHT30;65980;44.898;8.602;2023-12-14T16:38:18;9.21;81.06
77052;SHT30;65980;44.898;8.602;2023-12-14T16:41:23;9.42;80.17
77052;SHT30;65980;44.898;8.602;2023-12-14T16:44:27;9.60;79.33
77052;SHT30;65980;44.898;8.602;2023-12-14T16:47:32;9.75;78.02
77052;SHT30;65980;44.898;8.602;2023-12-14T16:55:34;9.91;78.41
77052;SHT30;65980;44.898;8.602;2023-12-14T16:58:38;9.98;77.83
77052;SHT30;65980;44.898;8.602;2023-12-14T17:01:43;9.91;77.48
77052;SHT30;65980;44.898;8.602;2023-12-14T17:04:48;9.53;78.85
77052;SHT30;65980;44.898;8.602;2023-12-14T17:07:52;9.73;78.28
77052;SHT30;65980;44.898;8.602;2023-12-14T17:10:56;9.63;78.23
77052;SHT30;65980;44.898;8.602;2023-12-14T17:14:25;9.52;78.77
77052;SHT30;65980;44.898;8.602;2023-12-14T17:17:29;9.45;79.29
77052;SHT30;65980;44.898;8.602;2023-12-14T17:20:37;8.80;81.32
77052;SHT30;65980;44.898;8.602;2023-12-14T17:23:41;8.55;82.56
77052;SHT30;65980;44.898;8.602;2023-12-14T17:26:45;8.65;82.20
77052;SHT30;65980;44.898;8.602;2023-12-14T17:29:52;8.81;81.36
77052;SHT30;65980;44.898;8.602;2023-12-14T17:32:56;8.94;80.99
77052;SHT30;65980;44.898;8.602;2023-12-14T17:36:00;9.05;80.16
77052;SHT30;65980;44.898;8.602;2023-12-14T17:39:05;9.13;79.82
77052;SHT30;65980;44.898;8.602;2023-12-14T17:42:09;8.91;80.15
77052;SHT30;65980;44.898;8.602;2023-12-14T17:45:13;8.53;81.89
77052;SHT30;65980;44.898;8.602;2023-12-14T17:48:19;8.53;80.91
77052;SHT30;65980;44.898;8.602;2023-12-14T17:51:27;8.65;80.57
77052;SHT30;65980;44.898;8.602;2023-12-14T17:54:33;8.77;80.18
77052;SHT30;65980;44.898;8.602;2023-12-14T17:57:39;8.67;80.39
77052;SHT30;65980;44.898;8.602;2023-12-14T18:00:44;8.66;80.94
77052;SHT30;65980;44.898;8.602;2023-12-14T18:03:48;8.73;80.67
77052;SHT30;65980;44.898;8.602;2023-12-14T18:06:54;8.52;81.09
77052;SHT30;65980;44.898;8.602;2023-12-14T18:09:58;8.55;80.86
77052;SHT30;65980;44.898;8.602;2023-12-14T18:13:06;8.62;81.33
77052;SHT30;65980;44.898;8.602;2023-12-14T18:16:12;8.66;80.73
77052;SHT30;65980;44.898;8.602;2023-12-14T18:19:17;8.55;81.50
77052;SHT30;65980;44.898;8.602;2023-12-14T18:22:22;8.41;81.41
77052;SHT30;65980;44.898;8.602;2023-12-14T18:25:27;8.01;83.04
77052;SHT30;65980;44.898;8.602;2023-12-14T18:28:31;7.76;84.13
77052;SHT30;65980;44.898;8.602;2023-12-14T18:31:36;7.93;83.76
77052;SHT30;65980;44.898;8.602;2023-12-14T18:34:42;8.10;82.96
77052;SHT30;65980;44.898;8.602;2023-12-14T18:37:47;8.17;82.80
77052;SHT30;65980;44.898;8.602;2023-12-14T18:40:53;8.04;83.09
77052;SHT30;65980;44.898;8.602;2023-12-14T18:43:57;8.21;82.68
77052;SHT30;65980;44.898;8.602;2023-12-14T18:47:01;8.15;81.97
77052;SHT30;65980;44.898;8.602;2023-12-14T18:50:06;8.28;81.75
77052;SHT30;65980;44.898;8.602;2023-12-14T18:53:10;7.98;83.13
77052;SHT30;65980;44.898;8.602;2023-12-14T18:56:15;8.03;82.69
77052;SHT30;65980;44.898;8.602;2023-12-14T18:59:19;7.91;81.46
77052;SHT30;65980;44.898;8.602;2023-12-14T19:02:26;7.91;81.83
77052;SHT30;65980;44.898;8.602;2023-12-14T19:05:31;7.47;83.45
77052;SHT30;65980;44.898;8.602;2023-12-14T19:08:40;7.47;83.35
77052;SHT30;65980;44.898;8.602;2023-12-14T19:11:45;7.41;83.93
77052;SHT30;65980;44.898;8.602;2023-12-14T19:14:49;7.61;81.90
77052;SHT30;65980;44.898;8.602;2023-12-14T19:17:54;7.66;82.66
77052;SHT30;65980;44.898;8.602;2023-12-14T19:20:58;7.80;82.00
77052;SHT30;65980;44.898;8.602;2023-12-14T19:24:03;7.86;81.54
77052;SHT30;65980;44.898;8.602;2023-12-14T19:27:07;7.75;80.97
77052;SHT30;65980;44.898;8.602;2023-12-14T19:30:12;7.49;81.55
77052;SHT30;65980;44.898;8.602;2023-12-14T19:33:17;7.18;83.10
77052;SHT30;65980;44.898;8.602;2023-12-14T19:36:27;7.05;83.93
77052;SHT30;65980;44.898;8.602;2023-12-14T19:39:32;7.11;82.96
77052;SHT30;65980;44.898;8.602;2023-12-14T19:42:38;7.05;82.77
77052;SHT30;65980;44.898;8.602;2023-12-14T19:45:43;6.83;83.97
77052;SHT30;65980;44.898;8.602;2023-12-14T19:48:48;6.77;83.24
77052;SHT30;65980;44.898;8.602;2023-12-14T19:51:56;6.96;81.61
77052;SHT30;65980;44.898;8.602;2023-12-14T19:55:01;7.13;82.38
77052;SHT30;65980;44.898;8.602;2023-12-14T19:58:08;7.21;82.68
77052;SHT30;65980;44.898;8.602;2023-12-14T20:01:12;7.30;82.16
77052;SHT30;65980;44.898;8.602;2023-12-14T20:04:19;7.28;82.25
77052;SHT30;65980;44.898;8.602;2023-12-14T20:07:28;7.22;81.82
77052;SHT30;65980;44.898;8.602;2023-12-14T20:10:34;7.21;82.16
77052;SHT30;65980;44.898;8.602;2023-12-14T20:13:39;7.30;82.23
77052;SHT30;65980;44.898;8.602;2023-12-14T20:16:45;7.28;81.80
77052;SHT30;65980;44.898;8.602;2023-12-14T20:19:52;7.36;81.22
77052;SHT30;65980;44.898;8.602;2023-12-14T20:23:02;7.24;82.02
77052;SHT30;65980;44.898;8.602;2023-12-14T20:26:08;7.15;81.73
77052;SHT30;65980;44.898;8.602;2023-12-14T20:29:17;7.05;81.98